KSUA/SUA METAR and TAF weather

Enter ICAO airport designator
Station Type Date Time Source
KSUA METAR 2021/05/11 22:47 UTC NOAA

KSUA 112247Z 12008KT 7SM SCT030 28/22 A3004


Station Type Date Time Source
KSUA Decoded METAR 2021/05/11 22:47 UTC NOAA

Stuart, Witham Field Airport, FL, United States (KSUA) 27-10-54N 080-13-16W
May 11, 2021 - 06:47 PM EDT / 2021.05.11 2247 UTC
Wind: from the ESE (120 degrees) at 9 MPH (8 KT):0
Visibility: 7 mile(s):0
Sky conditions: partly cloudy
Temperature: 82 F (28 C)
Dew Point: 71 F (22 C)
Relative Humidity: 69%
Pressure (altimeter): 30.04 in. Hg (1017 hPa)
ob: KSUA 112247Z 12008KT 7SM SCT030 28/22 A3004
cycle: 23

Station Type Date Time Source
KSUA TAF 2021/05/11 22:15 UTC NOAA

TAF
AMD KSUA 112213Z 1122/1218 VRB04KT P6SM SCT030 SCT250
FM120100 00000KT P6SM FEW030 SCT250
FM121400 20008KT P6SM SCT040 BKN200
AMD NOT SKED

Example: see airport list